sensor_id;sensor_type;location;lat;lon;timestamp;P1;durP1;ratioP1;P2;durP2;ratioP2
37231;SDS011;23125;48.156;15.954;2023-04-19T00:00:50;13.35;;;8.68;;
37231;SDS011;23125;48.156;15.954;2023-04-19T00:03:16;14.43;;;8.13;;
37231;SDS011;23125;48.156;15.954;2023-04-19T00:05:42;10.40;;;7.05;;
37231;SDS011;23125;48.156;15.954;2023-04-19T00:08:08;12.95;;;8.25;;
37231;SDS011;23125;48.156;15.954;2023-04-19T00:10:34;11.55;;;7.95;;
37231;SDS011;23125;48.156;15.954;2023-04-19T00:13:00;11.82;;;7.80;;
37231;SDS011;23125;48.156;15.954;2023-04-19T00:15:27;12.00;;;7.88;;
37231;SDS011;23125;48.156;15.954;2023-04-19T00:17:53;12.38;;;8.13;;
37231;SDS011;23125;48.156;15.954;2023-04-19T00:20:19;13.98;;;8.45;;
37231;SDS011;23125;48.156;15.954;2023-04-19T00:22:46;11.52;;;7.85;;
37231;SDS011;23125;48.156;15.954;2023-04-19T00:25:12;11.32;;;7.78;;
37231;SDS011;23125;48.156;15.954;2023-04-19T00:27:38;11.43;;;8.10;;
37231;SDS011;23125;48.156;15.954;2023-04-19T00:30:04;11.82;;;7.88;;
37231;SDS011;23125;48.156;15.954;2023-04-19T00:32:30;13.38;;;8.07;;
37231;SDS011;23125;48.156;15.954;2023-04-19T00:34:56;10.32;;;7.97;;
37231;SDS011;23125;48.156;15.954;2023-04-19T00:37:22;12.15;;;8.25;;
37231;SDS011;23125;48.156;15.954;2023-04-19T00:39:48;12.52;;;8.70;;
37231;SDS011;23125;48.156;15.954;2023-04-19T00:42:13;10.65;;;7.60;;
37231;SDS011;23125;48.156;15.954;2023-04-19T00:44:39;12.02;;;8.70;;
37231;SDS011;23125;48.156;15.954;2023-04-19T00:47:06;11.80;;;7.47;;
37231;SDS011;23125;48.156;15.954;2023-04-19T00:49:32;14.05;;;9.00;;
37231;SDS011;23125;48.156;15.954;2023-04-19T00:51:58;10.63;;;7.88;;
37231;SDS011;23125;48.156;15.954;2023-04-19T00:54:24;11.18;;;7.70;;
37231;SDS011;23125;48.156;15.954;2023-04-19T00:56:50;11.77;;;8.02;;
37231;SDS011;23125;48.156;15.954;2023-04-19T00:59:17;11.30;;;7.90;;
37231;SDS011;23125;48.156;15.954;2023-04-19T01:01:43;13.77;;;9.43;;
37231;SDS011;23125;48.156;15.954;2023-04-19T01:04:09;13.45;;;7.82;;
37231;SDS011;23125;48.156;15.954;2023-04-19T01:06:35;9.50;;;7.20;;
37231;SDS011;23125;48.156;15.954;2023-04-19T01:09:02;12.68;;;8.15;;
37231;SDS011;23125;48.156;15.954;2023-04-19T01:11:29;10.55;;;8.00;;
37231;SDS011;23125;48.156;15.954;2023-04-19T01:13:55;12.02;;;7.93;;
37231;SDS011;23125;48.156;15.954;2023-04-19T01:16:23;10.52;;;7.47;;
37231;SDS011;23125;48.156;15.954;2023-04-19T01:18:52;12.98;;;8.65;;
37231;SDS011;23125;48.156;15.954;2023-04-19T01:21:18;10.73;;;8.05;;
37231;SDS011;23125;48.156;15.954;2023-04-19T01:23:44;10.52;;;7.13;;
37231;SDS011;23125;48.156;15.954;2023-04-19T01:26:10;10.80;;;7.80;;
37231;SDS011;23125;48.156;15.954;2023-04-19T01:28:36;10.88;;;7.97;;
37231;SDS011;23125;48.156;15.954;2023-04-19T01:31:02;12.05;;;8.23;;
37231;SDS011;23125;48.156;15.954;2023-04-19T01:33:27;11.70;;;8.02;;
37231;SDS011;23125;48.156;15.954;2023-04-19T01:35:53;12.45;;;8.30;;
37231;SDS011;23125;48.156;15.954;2023-04-19T01:38:19;14.13;;;9.10;;
37231;SDS011;23125;48.156;15.954;2023-04-19T01:40:45;14.63;;;8.90;;
37231;SDS011;23125;48.156;15.954;2023-04-19T01:43:11;14.32;;;9.52;;
37231;SDS011;23125;48.156;15.954;2023-04-19T01:45:39;12.00;;;9.10;;
37231;SDS011;23125;48.156;15.954;2023-04-19T01:48:05;14.05;;;9.18;;
37231;SDS011;23125;48.156;15.954;2023-04-19T01:50:31;12.18;;;8.73;;
37231;SDS011;23125;48.156;15.954;2023-04-19T01:52:57;16.05;;;10.50;;
37231;SDS011;23125;48.156;15.954;2023-04-19T01:55:23;19.80;;;12.30;;
37231;SDS011;23125;48.156;15.954;2023-04-19T01:57:49;17.13;;;10.60;;
37231;SDS011;23125;48.156;15.954;2023-04-19T02:00:18;14.60;;;10.47;;
37231;SDS011;23125;48.156;15.954;2023-04-19T02:02:46;22.70;;;14.35;;
37231;SDS011;23125;48.156;15.954;2023-04-19T02:05:12;21.40;;;14.95;;
37231;SDS011;23125;48.156;15.954;2023-04-19T02:07:38;18.73;;;11.88;;
37231;SDS011;23125;48.156;15.954;2023-04-19T02:10:04;15.82;;;10.93;;
37231;SDS011;23125;48.156;15.954;2023-04-19T02:12:33;16.90;;;11.77;;
37231;SDS011;23125;48.156;15.954;2023-04-19T02:15:00;15.65;;;11.57;;
37231;SDS011;23125;48.156;15.954;2023-04-19T02:17:26;17.20;;;12.35;;
37231;SDS011;23125;48.156;15.954;2023-04-19T02:19:53;15.23;;;10.48;;
37231;SDS011;23125;48.156;15.954;2023-04-19T02:22:19;13.30;;;10.13;;
37231;SDS011;23125;48.156;15.954;2023-04-19T02:24:45;15.82;;;11.05;;
37231;SDS011;23125;48.156;15.954;2023-04-19T02:27:12;14.77;;;10.93;;
37231;SDS011;23125;48.156;15.954;2023-04-19T02:29:38;17.70;;;11.43;;
37231;SDS011;23125;48.156;15.954;2023-04-19T02:32:04;18.45;;;11.90;;
37231;SDS011;23125;48.156;15.954;2023-04-19T02:34:31;15.20;;;11.15;;
37231;SDS011;23125;48.156;15.954;2023-04-19T02:36:58;15.52;;;11.15;;
37231;SDS011;23125;48.156;15.954;2023-04-19T02:39:25;16.45;;;11.68;;
37231;SDS011;23125;48.156;15.954;2023-04-19T02:41:51;17.98;;;12.40;;
37231;SDS011;23125;48.156;15.954;2023-04-19T02:44:17;16.83;;;11.55;;
37231;SDS011;23125;48.156;15.954;2023-04-19T02:46:50;16.65;;;11.80;;
37231;SDS011;23125;48.156;15.954;2023-04-19T02:49:17;20.55;;;12.90;;
37231;SDS011;23125;48.156;15.954;2023-04-19T02:51:43;17.92;;;12.32;;
37231;SDS011;23125;48.156;15.954;2023-04-19T02:54:10;18.70;;;12.65;;
37231;SDS011;23125;48.156;15.954;2023-04-19T02:56:36;21.33;;;14.30;;
37231;SDS011;23125;48.156;15.954;2023-04-19T02:59:02;19.65;;;13.85;;
37231;SDS011;23125;48.156;15.954;2023-04-19T03:01:29;18.38;;;14.20;;
37231;SDS011;23125;48.156;15.954;2023-04-19T03:03:56;17.15;;;13.18;;
37231;SDS011;23125;48.156;15.954;2023-04-19T03:06:22;19.63;;;13.93;;
37231;SDS011;23125;48.156;15.954;2023-04-19T03:08:48;17.75;;;12.90;;
37231;SDS011;23125;48.156;15.954;2023-04-19T03:11:17;22.55;;;14.18;;
37231;SDS011;23125;48.156;15.954;2023-04-19T03:13:43;25.77;;;17.35;;
37231;SDS011;23125;48.156;15.954;2023-04-19T03:16:09;30.70;;;20.23;;
37231;SDS011;23125;48.156;15.954;2023-04-19T03:18:35;33.00;;;20.23;;
37231;SDS011;23125;48.156;15.954;2023-04-19T03:21:01;23.20;;;15.13;;
37231;SDS011;23125;48.156;15.954;2023-04-19T03:23:28;28.55;;;17.50;;
37231;SDS011;23125;48.156;15.954;2023-04-19T03:25:54;34.38;;;21.83;;
37231;SDS011;23125;48.156;15.954;2023-04-19T03:28:21;23.80;;;14.70;;
37231;SDS011;23125;48.156;15.954;2023-04-19T03:30:47;34.35;;;21.33;;
37231;SDS011;23125;48.156;15.954;2023-04-19T03:33:13;44.00;;;29.02;;
37231;SDS011;23125;48.156;15.954;2023-04-19T03:35:39;38.05;;;23.77;;
37231;SDS011;23125;48.156;15.954;2023-04-19T03:38:04;26.20;;;17.75;;
37231;SDS011;23125;48.156;15.954;2023-04-19T03:40:35;34.45;;;23.02;;
37231;SDS011;23125;48.156;15.954;2023-04-19T03:43:02;24.58;;;17.42;;
37231;SDS011;23125;48.156;15.954;2023-04-19T03:45:28;22.65;;;15.20;;
37231;SDS011;23125;48.156;15.954;2023-04-19T03:47:55;20.42;;;14.18;;
37231;SDS011;23125;48.156;15.954;2023-04-19T03:50:21;19.13;;;13.23;;
37231;SDS011;23125;48.156;15.954;2023-04-19T03:52:49;22.45;;;15.57;;
37231;SDS011;23125;48.156;15.954;2023-04-19T03:55:15;19.48;;;13.68;;
37231;SDS011;23125;48.156;15.954;2023-04-19T03:57:41;21.02;;;14.43;;
37231;SDS011;23125;48.156;15.954;2023-04-19T04:00:07;24.45;;;16.60;;
37231;SDS011;23125;48.156;15.954;2023-04-19T04:02:36;23.35;;;16.50;;
37231;SDS011;23125;48.156;15.954;2023-04-19T04:05:04;23.33;;;15.30;;
37231;SDS011;23125;48.156;15.954;2023-04-19T04:07:31;22.25;;;15.25;;
37231;SDS011;23125;48.156;15.954;2023-04-19T04:09:57;20.13;;;14.15;;
37231;SDS011;23125;48.156;15.954;2023-04-19T04:12:23;21.77;;;14.23;;
37231;SDS011;23125;48.156;15.954;2023-04-19T04:14:49;21.60;;;14.60;;
37231;SDS011;23125;48.156;15.954;2023-04-19T04:17:15;20.00;;;14.35;;
37231;SDS011;23125;48.156;15.954;2023-04-19T04:19:41;21.75;;;14.35;;
37231;SDS011;23125;48.156;15.954;2023-04-19T04:22:06;20.42;;;14.32;;
37231;SDS011;23125;48.156;15.954;2023-04-19T04:24:38;23.42;;;14.82;;
37231;SDS011;23125;48.156;15.954;2023-04-19T04:27:08;25.52;;;17.20;;
37231;SDS011;23125;48.156;15.954;2023-04-19T04:29:35;23.48;;;16.15;;
37231;SDS011;23125;48.156;15.954;2023-04-19T04:32:05;25.35;;;17.67;;
37231;SDS011;23125;48.156;15.954;2023-04-19T04:34:33;26.80;;;18.73;;
37231;SDS011;23125;48.156;15.954;2023-04-19T04:37:00;24.25;;;17.08;;
37231;SDS011;23125;48.156;15.954;2023-04-19T04:39:27;24.83;;;16.13;;
37231;SDS011;23125;48.156;15.954;2023-04-19T04:41:54;24.85;;;16.35;;
37231;SDS011;23125;48.156;15.954;2023-04-19T04:44:22;25.17;;;16.60;;
37231;SDS011;23125;48.156;15.954;2023-04-19T04:46:48;25.05;;;17.15;;
37231;SDS011;23125;48.156;15.954;2023-04-19T04:49:14;24.13;;;17.35;;
37231;SDS011;23125;48.156;15.954;2023-04-19T04:51:40;26.35;;;17.52;;
37231;SDS011;23125;48.156;15.954;2023-04-19T04:54:06;24.88;;;16.58;;
37231;SDS011;23125;48.156;15.954;2023-04-19T04:56:32;27.83;;;18.77;;
37231;SDS011;23125;48.156;15.954;2023-04-19T04:58:57;24.63;;;16.90;;
37231;SDS011;23125;48.156;15.954;2023-04-19T05:01:23;23.50;;;16.23;;
37231;SDS011;23125;48.156;15.954;2023-04-19T05:03:50;26.00;;;17.05;;
37231;SDS011;23125;48.156;15.954;2023-04-19T05:06:16;26.05;;;16.65;;
37231;SDS011;23125;48.156;15.954;2023-04-19T05:08:43;23.65;;;16.52;;
37231;SDS011;23125;48.156;15.954;2023-04-19T05:11:10;26.65;;;17.55;;
37231;SDS011;23125;48.156;15.954;2023-04-19T05:13:35;26.60;;;17.58;;
37231;SDS011;23125;48.156;15.954;2023-04-19T05:16:01;25.73;;;18.00;;
37231;SDS011;23125;48.156;15.954;2023-04-19T05:18:27;27.60;;;17.52;;
37231;SDS011;23125;48.156;15.954;2023-04-19T05:20:53;28.40;;;18.60;;
37231;SDS011;23125;48.156;15.954;2023-04-19T05:23:20;26.67;;;17.45;;
37231;SDS011;23125;48.156;15.954;2023-04-19T05:25:46;26.98;;;18.83;;
37231;SDS011;23125;48.156;15.954;2023-04-19T05:28:12;31.20;;;19.42;;
37231;SDS011;23125;48.156;15.954;2023-04-19T05:30:38;25.67;;;17.98;;
37231;SDS011;23125;48.156;15.954;2023-04-19T05:33:04;24.83;;;16.58;;
37231;SDS011;23125;48.156;15.954;2023-04-19T05:35:30;29.17;;;19.95;;
37231;SDS011;23125;48.156;15.954;2023-04-19T05:37:56;30.65;;;19.38;;
37231;SDS011;23125;48.156;15.954;2023-04-19T05:40:21;38.55;;;24.35;;
37231;SDS011;23125;48.156;15.954;2023-04-19T05:42:48;35.38;;;23.67;;
37231;SDS011;23125;48.156;15.954;2023-04-19T05:45:14;28.95;;;19.92;;
37231;SDS011;23125;48.156;15.954;2023-04-19T05:47:43;27.98;;;18.40;;
37231;SDS011;23125;48.156;15.954;2023-04-19T05:50:09;32.15;;;20.17;;
37231;SDS011;23125;48.156;15.954;2023-04-19T05:52:35;34.05;;;20.95;;
37231;SDS011;23125;48.156;15.954;2023-04-19T05:55:01;36.30;;;23.05;;
37231;SDS011;23125;48.156;15.954;2023-04-19T05:57:27;30.10;;;19.58;;
37231;SDS011;23125;48.156;15.954;2023-04-19T05:59:53;26.73;;;18.50;;
37231;SDS011;23125;48.156;15.954;2023-04-19T06:02:18;27.70;;;18.38;;
37231;SDS011;23125;48.156;15.954;2023-04-19T06:04:44;26.80;;;18.00;;
37231;SDS011;23125;48.156;15.954;2023-04-19T06:07:11;31.02;;;20.10;;
37231;SDS011;23125;48.156;15.954;2023-04-19T06:09:37;29.27;;;19.38;;
37231;SDS011;23125;48.156;15.954;2023-04-19T06:12:03;35.00;;;21.63;;
37231;SDS011;23125;48.156;15.954;2023-04-19T06:14:29;30.95;;;18.45;;
37231;SDS011;23125;48.156;15.954;2023-04-19T06:16:55;29.00;;;17.98;;
37231;SDS011;23125;48.156;15.954;2023-04-19T06:19:21;32.13;;;21.38;;
37231;SDS011;23125;48.156;15.954;2023-04-19T06:21:47;27.00;;;17.65;;
37231;SDS011;23125;48.156;15.954;2023-04-19T06:24:13;30.17;;;19.23;;
37231;SDS011;23125;48.156;15.954;2023-04-19T06:26:39;28.00;;;17.75;;
37231;SDS011;23125;48.156;15.954;2023-04-19T06:29:05;30.38;;;19.23;;
37231;SDS011;23125;48.156;15.954;2023-04-19T06:31:31;30.90;;;19.75;;
37231;SDS011;23125;48.156;15.954;2023-04-19T06:33:57;35.20;;;20.27;;
37231;SDS011;23125;48.156;15.954;2023-04-19T06:36:23;30.90;;;19.00;;
37231;SDS011;23125;48.156;15.954;2023-04-19T06:38:49;29.33;;;18.05;;
37231;SDS011;23125;48.156;15.954;2023-04-19T06:41:15;25.30;;;16.55;;
37231;SDS011;23125;48.156;15.954;2023-04-19T06:43:42;30.48;;;18.52;;
37231;SDS011;23125;48.156;15.954;2023-04-19T06:46:08;27.02;;;16.73;;
37231;SDS011;23125;48.156;15.954;2023-04-19T06:48:35;30.80;;;18.00;;
37231;SDS011;23125;48.156;15.954;2023-04-19T06:51:01;25.08;;;16.95;;
37231;SDS011;23125;48.156;15.954;2023-04-19T06:53:27;25.45;;;17.63;;
37231;SDS011;23125;48.156;15.954;2023-04-19T06:55:59;27.10;;;17.73;;
37231;SDS011;23125;48.156;15.954;2023-04-19T06:58:27;24.25;;;16.80;;
37231;SDS011;23125;48.156;15.954;2023-04-19T07:00:53;26.75;;;16.00;;
37231;SDS011;23125;48.156;15.954;2023-04-19T07:03:19;26.20;;;16.95;;
37231;SDS011;23125;48.156;15.954;2023-04-19T07:05:45;24.45;;;16.25;;
37231;SDS011;23125;48.156;15.954;2023-04-19T07:08:12;24.90;;;15.73;;
37231;SDS011;23125;48.156;15.954;2023-04-19T07:10:38;22.80;;;14.82;;
37231;SDS011;23125;48.156;15.954;2023-04-19T07:13:03;22.35;;;15.40;;
37231;SDS011;23125;48.156;15.954;2023-04-19T07:15:29;23.33;;;16.25;;
37231;SDS011;23125;48.156;15.954;2023-04-19T07:17:55;25.23;;;16.30;;
37231;SDS011;23125;48.156;15.954;2023-04-19T07:20:21;22.65;;;14.90;;
37231;SDS011;23125;48.156;15.954;2023-04-19T07:22:47;33.80;;;19.55;;
37231;SDS011;23125;48.156;15.954;2023-04-19T07:25:13;24.42;;;16.10;;
37231;SDS011;23125;48.156;15.954;2023-04-19T07:27:39;23.60;;;15.38;;
37231;SDS011;23125;48.156;15.954;2023-04-19T07:30:05;22.40;;;14.75;;
37231;SDS011;23125;48.156;15.954;2023-04-19T07:32:32;21.85;;;14.65;;
37231;SDS011;23125;48.156;15.954;2023-04-19T07:34:58;21.27;;;15.20;;
37231;SDS011;23125;48.156;15.954;2023-04-19T07:37:23;20.48;;;13.20;;
37231;SDS011;23125;48.156;15.954;2023-04-19T07:39:49;21.58;;;14.20;;
37231;SDS011;23125;48.156;15.954;2023-04-19T07:42:15;21.20;;;14.98;;
37231;SDS011;23125;48.156;15.954;2023-04-19T07:44:41;20.95;;;13.50;;
37231;SDS011;23125;48.156;15.954;2023-04-19T07:47:07;32.75;;;18.90;;
37231;SDS011;23125;48.156;15.954;2023-04-19T07:49:33;42.35;;;22.13;;
37231;SDS011;23125;48.156;15.954;2023-04-19T07:51:59;26.02;;;16.38;;
37231;SDS011;23125;48.156;15.954;2023-04-19T07:54:26;21.50;;;14.43;;
37231;SDS011;23125;48.156;15.954;2023-04-19T07:56:52;21.63;;;14.27;;
37231;SDS011;23125;48.156;15.954;2023-04-19T07:59:18;22.08;;;14.90;;
37231;SDS011;23125;48.156;15.954;2023-04-19T08:01:44;25.02;;;14.82;;
37231;SDS011;23125;48.156;15.954;2023-04-19T08:04:10;22.15;;;14.82;;
37231;SDS011;23125;48.156;15.954;2023-04-19T08:06:36;24.30;;;15.07;;
37231;SDS011;23125;48.156;15.954;2023-04-19T08:09:04;22.42;;;14.55;;
37231;SDS011;23125;48.156;15.954;2023-04-19T08:11:31;22.70;;;14.75;;
37231;SDS011;23125;48.156;15.954;2023-04-19T08:13:56;20.25;;;14.10;;
37231;SDS011;23125;48.156;15.954;2023-04-19T08:16:23;20.55;;;13.45;;
37231;SDS011;23125;48.156;15.954;2023-04-19T08:18:49;20.55;;;13.82;;
37231;SDS011;23125;48.156;15.954;2023-04-19T08:21:16;20.67;;;13.68;;
37231;SDS011;23125;48.156;15.954;2023-04-19T08:23:42;35.03;;;21.65;;
37231;SDS011;23125;48.156;15.954;2023-04-19T08:26:09;32.75;;;19.83;;
37231;SDS011;23125;48.156;15.954;2023-04-19T08:28:35;23.98;;;14.80;;
37231;SDS011;23125;48.156;15.954;2023-04-19T08:31:04;24.30;;;16.33;;
37231;SDS011;23125;48.156;15.954;2023-04-19T08:33:33;23.55;;;16.95;;
37231;SDS011;23125;48.156;15.954;2023-04-19T08:35:59;18.08;;;12.85;;
37231;SDS011;23125;48.156;15.954;2023-04-19T08:38:25;19.13;;;14.25;;
37231;SDS011;23125;48.156;15.954;2023-04-19T08:40:52;18.90;;;14.80;;
37231;SDS011;23125;48.156;15.954;2023-04-19T08:43:22;18.98;;;13.07;;
37231;SDS011;23125;48.156;15.954;2023-04-19T08:45:50;20.75;;;14.75;;
37231;SDS011;23125;48.156;15.954;2023-04-19T08:48:16;21.85;;;13.13;;
37231;SDS011;23125;48.156;15.954;2023-04-19T08:50:43;17.52;;;11.85;;
37231;SDS011;23125;48.156;15.954;2023-04-19T08:53:12;21.40;;;13.45;;
37231;SDS011;23125;48.156;15.954;2023-04-19T08:55:40;20.67;;;12.05;;
37231;SDS011;23125;48.156;15.954;2023-04-19T08:58:07;24.52;;;14.38;;
37231;SDS011;23125;48.156;15.954;2023-04-19T09:00:34;25.65;;;16.80;;
37231;SDS011;23125;48.156;15.954;2023-04-19T09:03:03;19.17;;;12.52;;
37231;SDS011;23125;48.156;15.954;2023-04-19T09:05:31;18.48;;;13.25;;
37231;SDS011;23125;48.156;15.954;2023-04-19T09:10:54;14.18;;;9.82;;
37231;SDS011;23125;48.156;15.954;2023-04-19T09:13:21;19.40;;;12.45;;
37231;SDS011;23125;48.156;15.954;2023-04-19T09:15:47;13.27;;;9.07;;
37231;SDS011;23125;48.156;15.954;2023-04-19T09:18:14;13.20;;;8.93;;
37231;SDS011;23125;48.156;15.954;2023-04-19T09:20:41;13.30;;;9.35;;
37231;SDS011;23125;48.156;15.954;2023-04-19T09:23:09;17.90;;;10.85;;
37231;SDS011;23125;48.156;15.954;2023-04-19T09:25:38;14.70;;;10.15;;
37231;SDS011;23125;48.156;15.954;2023-04-19T09:28:10;16.00;;;11.52;;
37231;SDS011;23125;48.156;15.954;2023-04-19T09:30:38;16.13;;;11.40;;
37231;SDS011;23125;48.156;15.954;2023-04-19T09:33:06;14.32;;;10.52;;
37231;SDS011;23125;48.156;15.954;2023-04-19T09:36:05;16.83;;;11.70;;
37231;SDS011;23125;48.156;15.954;2023-04-19T09:38:24;13.93;;;10.15;;
37231;SDS011;23125;48.156;15.954;2023-04-19T09:40:51;13.00;;;9.35;;
37231;SDS011;23125;48.156;15.954;2023-04-19T09:43:23;13.85;;;10.40;;
37231;SDS011;23125;48.156;15.954;2023-04-19T09:45:50;12.05;;;8.80;;
37231;SDS011;23125;48.156;15.954;2023-04-19T09:48:16;12.57;;;9.50;;
37231;SDS011;23125;48.156;15.954;2023-04-19T09:50:53;12.82;;;9.27;;
37231;SDS011;23125;48.156;15.954;2023-04-19T09:53:21;16.40;;;9.20;;
37231;SDS011;23125;48.156;15.954;2023-04-19T09:55:48;14.35;;;10.15;;
37231;SDS011;23125;48.156;15.954;2023-04-19T09:58:15;13.30;;;9.57;;
37231;SDS011;23125;48.156;15.954;2023-04-19T10:00:45;10.95;;;8.85;;
37231;SDS011;23125;48.156;15.954;2023-04-19T10:03:14;15.50;;;8.93;;
37231;SDS011;23125;48.156;15.954;2023-04-19T10:05:42;11.38;;;8.88;;
37231;SDS011;23125;48.156;15.954;2023-04-19T10:08:09;11.35;;;9.57;;
37231;SDS011;23125;48.156;15.954;2023-04-19T10:10:36;13.77;;;10.05;;
37231;SDS011;23125;48.156;15.954;2023-04-19T10:13:10;15.07;;;10.65;;
37231;SDS011;23125;48.156;15.954;2023-04-19T10:15:37;12.82;;;9.65;;
37231;SDS011;23125;48.156;15.954;2023-04-19T10:18:05;12.52;;;8.73;;
37231;SDS011;23125;48.156;15.954;2023-04-19T10:20:36;9.73;;;7.53;;
37231;SDS011;23125;48.156;15.954;2023-04-19T10:23:11;13.32;;;8.77;;
37231;SDS011;23125;48.156;15.954;2023-04-19T10:25:38;13.45;;;9.00;;
37231;SDS011;23125;48.156;15.954;2023-04-19T10:28:03;13.60;;;9.35;;
37231;SDS011;23125;48.156;15.954;2023-04-19T10:30:30;17.23;;;11.73;;
37231;SDS011;23125;48.156;15.954;2023-04-19T10:32:57;12.27;;;7.93;;
37231;SDS011;23125;48.156;15.954;2023-04-19T10:35:27;14.50;;;9.65;;
37231;SDS011;23125;48.156;15.954;2023-04-19T10:38:08;12.40;;;8.20;;
37231;SDS011;23125;48.156;15.954;2023-04-19T10:43:30;11.80;;;9.00;;
37231;SDS011;23125;48.156;15.954;2023-04-19T10:46:01;12.38;;;8.85;;
37231;SDS011;23125;48.156;15.954;2023-04-19T10:48:32;13.77;;;8.48;;
37231;SDS011;23125;48.156;15.954;2023-04-19T10:53:59;11.13;;;8.70;;
37231;SDS011;23125;48.156;15.954;2023-04-19T11:04:11;10.57;;;8.02;;
37231;SDS011;23125;48.156;15.954;2023-04-19T11:11:49;11.57;;;7.70;;
37231;SDS011;23125;48.156;15.954;2023-04-19T11:14:21;10.40;;;7.78;;
37231;SDS011;23125;48.156;15.954;2023-04-19T11:16:48;10.70;;;7.85;;
37231;SDS011;23125;48.156;15.954;2023-04-19T11:19:17;10.02;;;7.72;;
37231;SDS011;23125;48.156;15.954;2023-04-19T11:24:13;11.07;;;6.65;;
37231;SDS011;23125;48.156;15.954;2023-04-19T11:26:45;9.32;;;7.10;;
37231;SDS011;23125;48.156;15.954;2023-04-19T11:29:12;9.48;;;7.13;;
37231;SDS011;23125;48.156;15.954;2023-04-19T11:31:38;10.32;;;7.00;;
37231;SDS011;23125;48.156;15.954;2023-04-19T11:34:08;11.90;;;6.95;;
37231;SDS011;23125;48.156;15.954;2023-04-19T11:36:34;8.65;;;6.45;;
37231;SDS011;23125;48.156;15.954;2023-04-19T11:39:12;10.43;;;6.28;;
37231;SDS011;23125;48.156;15.954;2023-04-19T11:41:38;8.80;;;5.88;;
37231;SDS011;23125;48.156;15.954;2023-04-19T11:44:14;9.32;;;5.90;;
37231;SDS011;23125;48.156;15.954;2023-04-19T11:47:02;53.83;;;17.45;;
37231;SDS011;23125;48.156;15.954;2023-04-19T11:49:30;265.58;;;54.90;;
37231;SDS011;23125;48.156;15.954;2023-04-19T11:51:58;208.07;;;48.50;;
37231;SDS011;23125;48.156;15.954;2023-04-19T11:54:25;19.10;;;8.82;;
37231;SDS011;23125;48.156;15.954;2023-04-19T11:56:58;25.42;;;11.15;;
37231;SDS011;23125;48.156;15.954;2023-04-19T11:59:29;12.65;;;7.40;;
37231;SDS011;23125;48.156;15.954;2023-04-19T12:02:04;28.95;;;15.27;;
37231;SDS011;23125;48.156;15.954;2023-04-19T12:04:30;15.50;;;9.27;;
37231;SDS011;23125;48.156;15.954;2023-04-19T12:06:57;11.07;;;7.63;;
37231;SDS011;23125;48.156;15.954;2023-04-19T12:09:24;8.55;;;5.85;;
37231;SDS011;23125;48.156;15.954;2023-04-19T12:11:50;11.10;;;6.85;;
37231;SDS011;23125;48.156;15.954;2023-04-19T12:14:17;7.90;;;5.55;;
37231;SDS011;23125;48.156;15.954;2023-04-19T12:17:02;13.23;;;8.40;;
37231;SDS011;23125;48.156;15.954;2023-04-19T12:19:35;10.57;;;6.22;;
37231;SDS011;23125;48.156;15.954;2023-04-19T12:22:13;6.65;;;4.80;;
37231;SDS011;23125;48.156;15.954;2023-04-19T12:24:40;6.57;;;4.93;;
37231;SDS011;23125;48.156;15.954;2023-04-19T12:27:07;6.70;;;5.00;;
37231;SDS011;23125;48.156;15.954;2023-04-19T12:29:34;17.00;;;11.98;;
37231;SDS011;23125;48.156;15.954;2023-04-19T12:32:00;8.25;;;6.18;;
37231;SDS011;23125;48.156;15.954;2023-04-19T12:34:27;9.32;;;5.22;;
37231;SDS011;23125;48.156;15.954;2023-04-19T12:36:53;9.43;;;6.07;;
37231;SDS011;23125;48.156;15.954;2023-04-19T12:39:20;8.02;;;5.43;;
37231;SDS011;23125;48.156;15.954;2023-04-19T12:41:46;16.10;;;10.50;;
37231;SDS011;23125;48.156;15.954;2023-04-19T12:44:13;12.57;;;9.48;;
37231;SDS011;23125;48.156;15.954;2023-04-19T12:46:40;8.30;;;5.30;;
37231;SDS011;23125;48.156;15.954;2023-04-19T12:49:06;7.97;;;6.53;;
37231;SDS011;23125;48.156;15.954;2023-04-19T12:51:32;9.07;;;6.88;;
37231;SDS011;23125;48.156;15.954;2023-04-19T12:53:58;9.38;;;6.47;;
37231;SDS011;23125;48.156;15.954;2023-04-19T12:56:24;9.25;;;5.45;;
37231;SDS011;23125;48.156;15.954;2023-04-19T12:58:50;9.85;;;5.60;;
37231;SDS011;23125;48.156;15.954;2023-04-19T13:01:17;7.00;;;5.15;;
37231;SDS011;23125;48.156;15.954;2023-04-19T13:03:42;7.80;;;6.05;;
37231;SDS011;23125;48.156;15.954;2023-04-19T13:06:08;15.63;;;9.02;;
37231;SDS011;23125;48.156;15.954;2023-04-19T13:08:39;10.40;;;7.03;;
37231;SDS011;23125;48.156;15.954;2023-04-19T13:11:05;13.65;;;10.18;;
37231;SDS011;23125;48.156;15.954;2023-04-19T13:13:32;7.35;;;6.15;;
37231;SDS011;23125;48.156;15.954;2023-04-19T13:15:58;9.73;;;6.85;;
37231;SDS011;23125;48.156;15.954;2023-04-19T13:18:24;9.20;;;5.78;;
37231;SDS011;23125;48.156;15.954;2023-04-19T13:20:50;9.38;;;5.93;;
37231;SDS011;23125;48.156;15.954;2023-04-19T13:23:18;7.65;;;5.50;;
37231;SDS011;23125;48.156;15.954;2023-04-19T13:25:44;5.63;;;4.45;;
37231;SDS011;23125;48.156;15.954;2023-04-19T13:28:10;8.27;;;4.65;;
37231;SDS011;23125;48.156;15.954;2023-04-19T13:30:36;5.60;;;4.45;;
37231;SDS011;23125;48.156;15.954;2023-04-19T13:33:02;12.40;;;7.22;;
37231;SDS011;23125;48.156;15.954;2023-04-19T13:35:28;7.28;;;4.70;;
37231;SDS011;23125;48.156;15.954;2023-04-19T13:37:54;8.95;;;6.18;;
37231;SDS011;23125;48.156;15.954;2023-04-19T13:40:21;7.22;;;4.63;;
37231;SDS011;23125;48.156;15.954;2023-04-19T13:42:46;8.95;;;5.65;;
37231;SDS011;23125;48.156;15.954;2023-04-19T13:45:12;9.07;;;6.70;;
37231;SDS011;23125;48.156;15.954;2023-04-19T13:47:38;7.45;;;5.75;;
37231;SDS011;23125;48.156;15.954;2023-04-19T13:50:04;7.13;;;5.28;;
37231;SDS011;23125;48.156;15.954;2023-04-19T13:52:31;10.05;;;6.10;;
37231;SDS011;23125;48.156;15.954;2023-04-19T13:54:57;7.80;;;6.25;;
37231;SDS011;23125;48.156;15.954;2023-04-19T13:57:23;6.95;;;5.18;;
37231;SDS011;23125;48.156;15.954;2023-04-19T13:59:49;6.28;;;5.20;;
37231;SDS011;23125;48.156;15.954;2023-04-19T14:02:15;7.97;;;5.80;;
37231;SDS011;23125;48.156;15.954;2023-04-19T14:04:41;10.07;;;6.50;;
37231;SDS011;23125;48.156;15.954;2023-04-19T14:07:06;8.85;;;5.32;;
37231;SDS011;23125;48.156;15.954;2023-04-19T14:09:32;5.65;;;5.00;;
37231;SDS011;23125;48.156;15.954;2023-04-19T14:11:58;7.78;;;6.10;;
37231;SDS011;23125;48.156;15.954;2023-04-19T14:14:24;8.05;;;6.00;;
37231;SDS011;23125;48.156;15.954;2023-04-19T14:16:50;14.88;;;9.85;;
37231;SDS011;23125;48.156;15.954;2023-04-19T14:19:16;8.13;;;5.95;;
37231;SDS011;23125;48.156;15.954;2023-04-19T14:21:42;22.02;;;14.75;;
37231;SDS011;23125;48.156;15.954;2023-04-19T14:24:08;14.95;;;9.88;;
37231;SDS011;23125;48.156;15.954;2023-04-19T14:26:34;9.52;;;7.72;;
37231;SDS011;23125;48.156;15.954;2023-04-19T14:29:00;6.80;;;5.55;;
37231;SDS011;23125;48.156;15.954;2023-04-19T14:31:26;8.32;;;6.32;;
37231;SDS011;23125;48.156;15.954;2023-04-19T14:33:52;9.98;;;7.10;;
37231;SDS011;23125;48.156;15.954;2023-04-19T14:36:17;9.15;;;8.07;;
37231;SDS011;23125;48.156;15.954;2023-04-19T14:38:43;9.20;;;7.18;;